Queimada Nova, Brazil
Current Conditions -  °F | °C
As of 8:00 PM on Friday 31 Oct 2014 (Local Time) from SBPL Reporting Station
Clear Clear  
Wind Chill: 88°   Ceiling: Unl
Heat Index: 89°   Visibility: 6mi
Dew Point: 64°   Wind: 15mph
Humidity: 46%   Direction: 110°ESE
Pressure: 29.91"   Gusts: NA
Location:  8.58°S, 41.42°W
Report Text: SBPL 312300Z 11013KT CAVOK 31/18 Q1013
Loading
Personal Weather Stations






























Interactive Weather Map
Tropical Storm Tracking
New forecast layout! Learn more

10-Day Weather Forecast

Advertisements
Track Severe Weather on mobile